createdAt,value
2023-05-16T00:01:16.852Z,2.10
2023-05-16T00:05:22.435Z,9.05
2023-05-16T00:09:25.691Z,4.22
2023-05-16T00:13:30.128Z,3.78
2023-05-16T00:17:33.130Z,2.17
2023-05-16T00:21:38.308Z,3.17
2023-05-16T00:25:41.436Z,5.35
2023-05-16T00:29:44.965Z,7.03
2023-05-16T00:33:47.945Z,3.63
2023-05-16T00:37:53.567Z,4.03
2023-05-16T00:41:57.313Z,3.55
2023-05-16T00:46:01.383Z,3.28
2023-05-16T00:50:05.978Z,4.15
2023-05-16T00:54:10.803Z,5.85
2023-05-16T00:58:15.342Z,3.00
2023-05-16T01:02:19.032Z,3.47
2023-05-16T01:06:22.598Z,4.22
2023-05-16T01:10:32.911Z,3.58
2023-05-16T01:28:21.958Z,4.00
2023-05-16T01:32:27.935Z,4.07
2023-05-16T01:37:33.532Z,4.18
2023-05-16T01:42:15.256Z,6.13
2023-05-16T01:47:05.919Z,4.15
2023-05-16T01:56:28.229Z,2.80
2023-05-16T02:05:17.006Z,2.67
2023-05-16T02:13:51.328Z,4.05
2023-05-16T02:18:15.200Z,8.27
2023-05-16T02:22:34.888Z,5.70
2023-05-16T02:26:38.162Z,4.05
2023-05-16T02:30:41.880Z,3.08
2023-05-16T02:34:45.599Z,3.13
2023-05-16T02:38:50.436Z,4.15
2023-05-16T02:42:54.448Z,4.38
2023-05-16T02:46:58.598Z,3.42
2023-05-16T02:51:01.782Z,4.78
2023-05-16T02:55:21.676Z,2.00
2023-05-16T02:59:23.433Z,5.32
2023-05-16T03:03:27.047Z,3.58
2023-05-16T03:07:30.573Z,7.75
2023-05-16T03:11:36.386Z,3.50
2023-05-16T03:15:40.448Z,5.03
2023-05-16T03:19:43.672Z,13.75
2023-05-16T03:23:47.060Z,4.22
2023-05-16T03:27:51.758Z,3.25
2023-05-16T03:31:55.392Z,4.50
2023-05-16T03:35:58.809Z,3.45
2023-05-16T03:40:05.657Z,5.82
2023-05-16T03:44:10.237Z,6.28
2023-05-16T03:48:13.650Z,2.70
2023-05-16T03:52:16.838Z,2.83
2023-05-16T03:56:20.323Z,4.03
2023-05-16T04:00:24.677Z,4.15
2023-05-16T04:04:27.920Z,4.93
2023-05-16T04:08:31.263Z,3.05
2023-05-16T04:12:34.673Z,4.18
2023-05-16T04:16:39.252Z,5.75
2023-05-16T04:20:44.070Z,4.78
2023-05-16T04:24:47.146Z,4.03
2023-05-16T04:28:50.661Z,3.33
2023-05-16T04:32:55.432Z,4.75
2023-05-16T04:36:59.435Z,16.73
2023-05-16T04:41:04.300Z,6.15
2023-05-16T04:45:11.527Z,6.85
2023-05-16T04:49:16.812Z,6.03
2023-05-16T04:53:20.165Z,6.63
2023-05-16T04:57:23.711Z,4.28
2023-05-16T05:01:27.079Z,5.60
2023-05-16T05:05:32.417Z,6.43
2023-05-16T05:09:36.290Z,7.63
2023-05-16T05:13:39.625Z,5.18
2023-05-16T05:17:43.474Z,7.80
2023-05-16T05:21:47.904Z,8.43
2023-05-16T05:25:51.447Z,9.50
2023-05-16T05:29:55.092Z,12.50
2023-05-16T05:33:58.764Z,11.38
2023-05-16T05:38:03.606Z,9.15
2023-05-16T05:42:07.143Z,9.15
2023-05-16T05:46:10.507Z,11.98
2023-05-16T05:50:14.014Z,10.65
2023-05-16T06:02:24.345Z,5.85
2023-05-16T06:06:27.940Z,10.57
2023-05-16T06:10:31.474Z,7.97
2023-05-16T06:14:36.677Z,7.10
2023-05-16T06:18:39.850Z,9.60
2023-05-16T06:22:43.123Z,6.22
2023-05-16T06:26:50.156Z,5.03
2023-05-16T06:30:55.741Z,4.82
2023-05-16T06:34:58.844Z,5.55
2023-05-16T06:39:02.151Z,5.57
2023-05-16T06:43:05.427Z,6.32
2023-05-16T06:47:10.027Z,5.10
2023-05-16T06:51:13.264Z,40.47
2023-05-16T06:55:17.587Z,10.40
2023-05-16T06:59:21.128Z,6.10
2023-05-16T07:03:26.509Z,4.63
2023-05-16T07:07:29.821Z,5.85
2023-05-16T07:11:33.404Z,5.20
2023-05-16T07:15:36.811Z,3.97
2023-05-16T07:19:42.175Z,3.83
2023-05-16T07:23:45.756Z,5.03
2023-05-16T07:27:49.109Z,6.05
2023-05-16T07:31:52.479Z,4.55
2023-05-16T07:36:12.155Z,5.55
2023-05-16T07:40:21.485Z,4.78
2023-05-16T07:44:24.916Z,4.40
2023-05-16T07:48:28.485Z,6.68
2023-05-16T07:52:33.781Z,7.82
2023-05-16T07:56:39.227Z,8.60
2023-05-16T08:00:43.054Z,7.85
2023-05-16T08:04:46.956Z,7.65
2023-05-16T08:08:52.638Z,7.72
2023-05-16T08:12:56.040Z,9.40
2023-05-16T08:16:59.849Z,5.72
2023-05-16T08:21:03.130Z,5.53
2023-05-16T08:25:09.511Z,7.43
2023-05-16T08:29:12.515Z,4.05
2023-05-16T08:33:16.741Z,5.68
2023-05-16T08:37:19.966Z,5.95
2023-05-16T08:41:25.172Z,8.93
2023-05-16T08:45:28.687Z,6.38
2023-05-16T08:49:33.248Z,6.93
2023-05-16T08:53:43.190Z,8.48
2023-05-16T08:57:48.450Z,5.78
2023-05-16T09:01:53.428Z,14.38
2023-05-16T09:05:57.291Z,6.78
2023-05-16T09:10:00.798Z,12.05
2023-05-16T09:14:06.662Z,14.10
2023-05-16T09:18:14.052Z,15.63
2023-05-16T09:22:17.579Z,14.45
2023-05-16T09:26:22.240Z,8.77
2023-05-16T09:30:31.858Z,8.63
2023-05-16T09:34:39.984Z,18.85
2023-05-16T09:38:43.599Z,20.92
2023-05-16T09:42:47.934Z,20.77
2023-05-16T09:46:56.386Z,19.45
2023-05-16T09:51:04.235Z,25.00
2023-05-16T09:55:09.406Z,20.92
2023-05-16T09:59:13.322Z,20.13
2023-05-16T10:03:18.777Z,19.48
2023-05-16T10:07:23.683Z,21.52
2023-05-16T10:11:27.259Z,21.10
2023-05-16T10:15:31.443Z,21.48
2023-05-16T10:19:39.365Z,22.40
2023-05-16T10:23:44.256Z,23.65
2023-05-16T10:27:48.336Z,17.98
2023-05-16T10:31:51.868Z,25.40
2023-05-16T10:35:57.502Z,24.08
2023-05-16T10:40:02.697Z,19.10
2023-05-16T10:44:06.705Z,21.77
2023-05-16T10:48:13.400Z,18.98
2023-05-16T10:52:18.836Z,16.38
2023-05-16T10:56:24.504Z,28.45
2023-05-16T11:00:28.295Z,20.17
2023-05-16T11:04:51.098Z,20.85
2023-05-16T11:09:06.903Z,19.95
2023-05-16T11:13:10.037Z,16.25
2023-05-16T11:17:17.107Z,15.57
2023-05-16T11:21:20.739Z,11.90
2023-05-16T11:25:41.634Z,15.02
2023-05-16T11:29:44.936Z,10.88
2023-05-16T11:33:48.481Z,10.82
2023-05-16T11:37:52.446Z,12.13
2023-05-16T11:41:58.098Z,12.82
2023-05-16T11:46:01.994Z,10.10
2023-05-16T11:50:06.593Z,10.35
2023-05-16T11:54:11.623Z,8.48
2023-05-16T11:58:18.331Z,8.23
2023-05-16T12:02:22.193Z,10.70
2023-05-16T12:06:25.893Z,9.98
2023-05-16T12:10:29.562Z,10.52
2023-05-16T12:14:37.091Z,8.82
2023-05-16T12:18:43.378Z,8.45
2023-05-16T12:22:48.155Z,10.15
2023-05-16T12:26:55.024Z,10.95
2023-05-16T12:31:00.123Z,9.20
2023-05-16T12:35:03.541Z,9.73
2023-05-16T12:39:08.675Z,11.43
2023-05-16T12:43:16.727Z,10.23
2023-05-16T12:47:21.766Z,17.08
2023-05-16T12:51:25.160Z,9.98
2023-05-16T12:55:29.343Z,15.32
2023-05-16T12:59:32.741Z,9.98
2023-05-16T13:07:46.687Z,8.30
2023-05-16T13:11:50.318Z,8.15
2023-05-16T13:15:54.128Z,7.32
2023-05-16T13:19:57.554Z,8.70
2023-05-16T13:24:03.132Z,9.80
2023-05-16T13:28:06.664Z,7.97
2023-05-16T13:32:10.959Z,7.40
2023-05-16T13:36:14.471Z,8.77
2023-05-16T13:40:19.556Z,7.82
2023-05-16T13:44:23.048Z,10.65
2023-05-16T13:52:48.096Z,9.93
2023-05-16T13:56:52.913Z,9.05
2023-05-16T14:00:56.549Z,6.03
2023-05-16T14:04:59.754Z,8.48
2023-05-16T14:09:03.836Z,9.57
2023-05-16T14:13:08.560Z,11.45
2023-05-16T14:17:12.127Z,10.63
2023-05-16T14:21:17.095Z,8.00
2023-05-16T14:25:21.453Z,10.27
2023-05-16T14:29:26.645Z,7.00
2023-05-16T14:33:31.290Z,9.40
2023-05-16T14:37:34.271Z,10.95
2023-05-16T14:41:38.015Z,8.65
2023-05-16T14:45:42.866Z,10.88
2023-05-16T14:49:46.557Z,11.40
2023-05-16T14:53:49.683Z,14.18
2023-05-16T14:57:59.684Z,10.57
2023-05-16T15:02:04.992Z,7.93
2023-05-16T15:06:09.317Z,7.15
2023-05-16T15:10:12.749Z,7.60
2023-05-16T15:14:16.213Z,9.48
2023-05-16T15:18:20.677Z,8.52
2023-05-16T15:22:24.511Z,11.32
2023-05-16T15:26:27.767Z,6.82
2023-05-16T15:30:31.539Z,6.88
2023-05-16T15:34:36.578Z,9.90
2023-05-16T15:38:47.127Z,8.45
2023-05-16T15:42:50.257Z,8.50
2023-05-16T15:46:54.286Z,10.65
2023-05-16T15:50:58.979Z,7.80
2023-05-16T15:55:02.470Z,6.82
2023-05-16T15:59:07.495Z,9.60
2023-05-16T16:03:11.309Z,10.88
2023-05-16T16:07:15.903Z,9.30
2023-05-16T16:11:22.009Z,9.60
2023-05-16T16:15:25.484Z,14.65
2023-05-16T16:19:29.581Z,11.73
2023-05-16T16:23:34.390Z,10.35
2023-05-16T16:27:37.821Z,8.18
2023-05-16T16:31:41.197Z,11.05
2023-05-16T16:35:44.623Z,9.00
2023-05-16T16:39:49.204Z,11.93
2023-05-16T16:43:53.523Z,12.05
2023-05-16T16:47:56.776Z,14.38
2023-05-16T16:52:00.834Z,9.77
2023-05-16T16:56:05.769Z,14.65
2023-05-16T17:00:11.980Z,12.77
2023-05-16T17:04:15.126Z,11.60
2023-05-16T17:08:18.700Z,13.07
2023-05-16T17:12:23.514Z,11.13
2023-05-16T17:16:28.307Z,18.77
2023-05-16T17:20:31.443Z,12.48
2023-05-16T17:24:35.132Z,11.60
2023-05-16T17:28:39.997Z,12.43
2023-05-16T17:32:43.726Z,11.93
2023-05-16T17:36:47.495Z,13.13
2023-05-16T17:40:51.420Z,11.35
2023-05-16T17:44:55.930Z,15.90
2023-05-16T17:49:00.327Z,16.27
2023-05-16T17:53:04.879Z,17.50
2023-05-16T17:57:09.422Z,18.23
2023-05-16T18:01:14.161Z,21.25
2023-05-16T18:05:18.584Z,22.10
2023-05-16T18:09:22.237Z,22.90
2023-05-16T18:13:25.494Z,14.60
2023-05-16T18:17:30.290Z,19.35
2023-05-16T18:21:33.932Z,18.85
2023-05-16T18:25:37.769Z,19.77
2023-05-16T18:29:41.298Z,23.73
2023-05-16T18:33:46.867Z,20.40
2023-05-16T18:37:50.821Z,15.80
2023-05-16T18:41:53.967Z,20.10
2023-05-16T18:45:58.424Z,21.13
2023-05-16T18:50:04.860Z,21.05
2023-05-16T18:54:08.304Z,21.90
2023-05-16T18:58:11.851Z,16.95
2023-05-16T19:02:15.170Z,18.35
2023-05-16T19:06:20.030Z,21.85
2023-05-16T19:10:27.966Z,18.02
2023-05-16T19:14:31.578Z,15.82
2023-05-16T19:18:36.228Z,19.17
2023-05-16T19:22:41.474Z,13.50
2023-05-16T19:26:44.881Z,19.25
2023-05-16T19:30:48.375Z,23.40
2023-05-16T19:34:53.719Z,16.13
2023-05-16T19:38:58.574Z,15.25
2023-05-16T19:43:02.232Z,12.52
2023-05-16T19:47:05.630Z,13.52
2023-05-16T19:51:09.510Z,12.38
2023-05-16T19:55:14.194Z,13.43
2023-05-16T19:59:17.795Z,11.23
2023-05-16T20:03:21.585Z,10.07
2023-05-16T20:07:25.786Z,10.95
2023-05-16T20:11:30.785Z,12.73
2023-05-16T20:15:35.544Z,14.85
2023-05-16T20:19:44.073Z,11.23
2023-05-16T20:23:47.773Z,14.27
2023-05-16T20:27:52.913Z,14.50
2023-05-16T20:31:56.466Z,9.70
2023-05-16T20:36:00.414Z,10.15
2023-05-16T20:40:04.413Z,10.48
2023-05-16T20:44:09.246Z,8.27
2023-05-16T20:48:14.455Z,12.10
2023-05-16T20:52:17.817Z,8.38
2023-05-16T20:56:23.403Z,5.28
2023-05-16T21:00:27.952Z,4.95
2023-05-16T21:04:31.498Z,6.68
2023-05-16T21:08:34.904Z,9.52
2023-05-16T21:12:38.193Z,7.93
2023-05-16T21:16:44.879Z,7.28
2023-05-16T21:20:48.266Z,7.80
2023-05-16T21:24:52.922Z,8.88
2023-05-16T21:28:56.631Z,7.47
2023-05-16T21:33:01.505Z,7.80
2023-05-16T21:37:05.060Z,8.27
2023-05-16T21:41:08.300Z,14.55
2023-05-16T21:45:16.789Z,6.63
2023-05-16T21:49:21.486Z,6.82
2023-05-16T21:53:26.771Z,7.28
2023-05-16T21:57:29.719Z,8.30
2023-05-16T22:01:33.039Z,6.15
2023-05-16T22:05:37.919Z,7.28
2023-05-16T22:09:42.129Z,6.53
2023-05-16T22:13:45.441Z,8.52
2023-05-16T22:17:50.079Z,7.07
2023-05-16T22:21:54.788Z,6.50
2023-05-16T22:25:58.226Z,9.25
2023-05-16T22:30:01.580Z,6.07
2023-05-16T22:34:05.403Z,8.45
2023-05-16T22:38:10.311Z,5.10
2023-05-16T22:42:13.726Z,5.45
2023-05-16T22:46:16.896Z,10.70
2023-05-16T22:50:20.722Z,7.38
2023-05-16T22:54:25.716Z,6.68
2023-05-16T22:58:29.218Z,10.73
2023-05-16T23:02:32.626Z,10.57
2023-05-16T23:06:36.241Z,10.45
2023-05-16T23:10:41.056Z,9.82
2023-05-16T23:14:45.144Z,9.02
2023-05-16T23:18:49.976Z,10.93
2023-05-16T23:22:53.655Z,13.77
2023-05-16T23:26:58.268Z,9.43
2023-05-16T23:31:02.205Z,8.10
2023-05-16T23:35:06.477Z,8.90
2023-05-16T23:39:10.589Z,11.02
2023-05-16T23:43:15.833Z,11.52
2023-05-16T23:47:19.276Z,11.23
2023-05-16T23:51:22.438Z,13.13
2023-05-16T23:55:26.443Z,15.70
2023-05-16T23:59:31.136Z,14.60
